Map

Track Data

SID SEASON NUMBER BASIN SUBBASIN NAME ISO_TIME NATURE LAT LON WMO_WIND WMO_PRES WMO_AGENCY TRACK_TYPE DIST2LAND LANDFALL IFLAG USA_AGENCY USA_ATCF_ID USA_LAT USA_LON USA_RECORD USA_STATUS USA_WIND USA_PRES USA_SSHS USA_R34_NE USA_R34_SE USA_R34_SW USA_R34_NW USA_R50_NE USA_R50_SE USA_R50_SW USA_R50_NW USA_R64_NE USA_R64_SE USA_R64_SW USA_R64_NW USA_POCI USA_ROCI USA_RMW USA_EYE TOKYO_LAT TOKYO_LON TOKYO_GRADE TOKYO_WIND TOKYO_PRES TOKYO_R50_DIR TOKYO_R50_LONG TOKYO_R50_SHORT TOKYO_R30_DIR TOKYO_R30_LONG TOKYO_R30_SHORT TOKYO_LAND CMA_LAT CMA_LON CMA_CAT CMA_WIND CMA_PRES HKO_LAT HKO_LON HKO_CAT HKO_WIND HKO_PRES NEWDELHI_LAT NEWDELHI_LON NEWDELHI_GRADE NEWDELHI_WIND NEWDELHI_PRES NEWDELHI_CI NEWDELHI_DP NEWDELHI_POCI REUNION_LAT REUNION_LON REUNION_TYPE REUNION_WIND REUNION_PRES REUNION_TNUM REUNION_CI REUNION_RMW REUNION_R34_NE REUNION_R34_SE REUNION_R34_SW REUNION_R34_NW REUNION_R50_NE REUNION_R50_SE REUNION_R50_SW REUNION_R50_NW REUNION_R64_NE REUNION_R64_SE REUNION_R64_SW REUNION_R64_NW BOM_LAT BOM_LON BOM_TYPE BOM_WIND BOM_PRES BOM_TNUM BOM_CI BOM_RMW BOM_R34_NE BOM_R34_SE BOM_R34_SW BOM_R34_NW BOM_R50_NE BOM_R50_SE BOM_R50_SW BOM_R50_NW BOM_R64_NE BOM_R64_SE BOM_R64_SW BOM_R64_NW BOM_ROCI BOM_POCI BOM_EYE BOM_POS_METHOD BOM_PRES_METHOD NADI_LAT NADI_LON NADI_CAT NADI_WIND NADI_PRES WELLINGTON_LAT WELLINGTON_LON WELLINGTON_WIND WELLINGTON_PRES DS824_LAT DS824_LON DS824_STAGE DS824_WIND DS824_PRES TD9636_LAT TD9636_LON TD9636_STAGE TD9636_WIND TD9636_PRES TD9635_LAT TD9635_LON TD9635_WIND TD9635_PRES TD9635_ROCI NEUMANN_LAT NEUMANN_LON NEUMANN_CLASS NEUMANN_WIND NEUMANN_PRES MLC_LAT MLC_LON MLC_CLASS MLC_WIND MLC_PRES USA_GUST BOM_GUST BOM_GUST_PER REUNION_GUST REUNION_GUST_PER USA_SEAHGT USA_SEARAD_NE USA_SEARAD_SE USA_SEARAD_SW USA_SEARAD_NW STORM_SPEED STORM_DIR
1983287N09164 1983 73 WP MM LEX 1983-10-14 00:00:00 NR 9.00000 164.000 main 1906 1842 __________O___ -1 9.00000 164.000 0 19 271
1983287N09164 1983 73 WP MM LEX 1983-10-14 03:00:00 NR 9.02080 163.017 main 1835 1776 __________P___ -1 9.02080 163.017 0 19 271
1983287N09164 1983 73 WP MM LEX 1983-10-14 06:00:00 NR 9.03174 162.045 main 1769 1708 __________P___ -1 9.03174 162.045 0 19 270
1983287N09164 1983 73 WP MM LEX 1983-10-14 09:00:00 NR 9.02569 161.098 main 1708 1651 __________P___ -1 9.02569 161.098 0 18 269
1983287N09164 1983 73 WP MM LEX 1983-10-14 12:00:00 NR 8.99565 160.189 main 1651 1594 __________P___ -1 8.99565 160.189 0 17 267
1983287N09164 1983 73 WP MM LEX 1983-10-14 15:00:00 NR 8.93476 159.332 main 1589 1539 __________P___ -1 8.93476 159.332 0 16 264
1983287N09164 1983 73 WP MM LEX 1983-10-14 18:00:00 NR 8.83628 158.540 main 1533 1491 __________P___ -1 8.83628 158.540 0 15 261
1983287N09164 1983 73 WP MM LEX 1983-10-14 21:00:00 NR 8.69357 157.825 main 1485 1435 __________P___ -1 8.69357 157.825 0 14 256
1983287N09164 1983 73 WP MM LEX 1983-10-15 00:00:00 NR 8.50000 157.200 main 1435 1390 __________O___ -1 8.50000 157.200 0 12 249
1983287N09164 1983 73 WP MM LEX 1983-10-15 03:00:00 NR 8.25079 156.668 main 1390 1335 __________P___ -1 8.25079 156.668 0 11 241
1983287N09164 1983 73 WP MM LEX 1983-10-15 06:00:00 NR 7.94842 156.189 main 1325 1271 __________P___ -1 7.94842 156.189 0 12 235
1983287N09164 1983 73 WP MM LEX 1983-10-15 09:00:00 NR 7.59689 155.716 main 1271 1207 __________P___ -1 7.59689 155.716 0 12 233
1983287N09164 1983 73 WP MM LEX 1983-10-15 12:00:00 NR 7.20000 155.200 main 1207 1130 __________O___ -1 7.20000 155.200 0 15 232
1983287N09164 1983 73 WP MM LEX 1983-10-15 15:00:00 NR 6.70734 154.567 main 1130 1051 __________P___ -1 6.70734 154.567 0 17 232
1983287N09164 1983 73 WP MM LEX 1983-10-15 18:00:00 NR 6.18267 153.887 main 1051 975 __________P___ -1 6.18267 153.887 0 17 233
1983287N09164 1983 73 WP MM LEX 1983-10-15 21:00:00 NR 5.69163 153.188 main 975 914 __________P___ -1 5.69163 153.188 0 16 237
1983287N09164 1983 73 WP MM LEX 1983-10-16 00:00:00 NR 5.30000 152.500 main 914 881 __________O___ -1 5.30000 152.500 0 15 245
1983287N09164 1983 73 WP MM LEX 1983-10-16 03:00:00 NR 5.07563 151.873 main 881 864 __________P___ -1 5.07563 151.873 0 13 255
1983287N09164 1983 73 WP MM LEX 1983-10-16 06:00:00 NR 4.95709 151.258 main 864 851 __________P___ -1 4.95709 151.258 0 12 262
1983287N09164 1983 73 WP MM LEX 1983-10-16 09:00:00 NR 4.91000 150.639 main 852 836 __________P___ -1 4.91000 150.639 0 13 267
1983287N09164 1983 73 WP MM LEX 1983-10-16 12:00:00 NR 4.90000 150.000 main 836 804 __________O___ -1 4.90000 150.000 0 12 263
1983287N09164 1983 73 WP MM LEX 1983-10-16 15:00:00 NR 4.76470 149.417 main 804 777 __________P___ -1 4.76470 149.417 0 12 259
1983287N09164 1983 73 WP MM LEX 1983-10-16 18:00:00 NR 4.67354 148.799 main 777 766 __________P___ -1 4.67354 148.799 0 13 267
1983287N09164 1983 73 WP MM LEX 1983-10-16 21:00:00 NR 4.69566 148.082 main 766 763 __________P___ -1 4.69566 148.082 0 16 278
1983287N09164 1983 73 WP MM LEX 1983-10-17 00:00:00 NR 4.90000 147.200 main 784 784 __________O___ -1 4.90000 147.200 0 21 287
1983287N09164 1983 73 WP MM LEX 1983-10-17 03:00:00 NR 5.31938 146.071 main 831 831 __________P___ -1 5.31938 146.071 0 26 293
1983287N09164 1983 73 WP MM LEX 1983-10-17 06:00:00 NR 5.92390 144.777 main 918 918 __________P___ -1 5.92390 144.777 0 30 297
1983287N09164 1983 73 WP MM LEX 1983-10-17 09:00:00 NR 6.66624 143.395 main 1048 1048 __________P___ -1 6.66624 143.395 0 32 300
1983287N09164 1983 73 WP MM LEX 1983-10-17 12:00:00 NR 7.50000 142.000 main 1103 1099 __________O___ -1 7.50000 142.000 0 33 302
1983287N09164 1983 73 WP MM LEX 1983-10-17 15:00:00 NR 8.42812 140.575 main 1151 1151 __________P___ -1 8.42812 140.575 0 34 304
1983287N09164 1983 73 WP MM LEX 1983-10-17 18:00:00 NR 9.41956 139.167 main 1200 1200 __________P___ -1 9.41956 139.167 0 33 306
1983287N09164 1983 73 WP MM LEX 1983-10-17 21:00:00 NR 10.3759 137.875 main 1269 1181 __________P___ -1 10.3759 137.875 0 29 307
1983287N09164 1983 73 WP MM LEX 1983-10-18 00:00:00 NR 11.2000 136.800 main 1181 1118 __________O___ -1 11.2000 136.800 0 22 309
1983287N09164 1983 73 WP MM LEX 1983-10-18 03:00:00 NR 11.7725 136.099 main 1121 1076 __________P___ -1 11.7725 136.099 0 15 311
1983287N09164 1983 73 WP MM LEX 1983-10-18 06:00:00 NR 12.2094 135.615 main 1076 1037 __________P___ -1 12.2094 135.615 0 12 313
1983287N09164 1983 73 WP MM LEX 1983-10-18 09:00:00 NR 12.5670 135.224 main 1039 1002 __________P___ -1 12.5670 135.224 0 11 311
1983287N09164 1983 73 WP MM LEX 1983-10-18 12:00:00 NR 12.9000 134.800 main 1002 949 __________O___ -1 12.9000 134.800 0 13 306
1983287N09164 1983 73 WP MM LEX 1983-10-18 15:00:00 NR 13.3299 134.166 main 949 883 __________P___ -1 13.3299 134.166 0 15 303
1983287N09164 1983 73 WP MM LEX 1983-10-18 18:00:00 NR 13.7398 133.476 main 883 818 __________P___ -1 13.7398 133.476 0 16 299
1983287N09164 1983 73 WP MM LEX 1983-10-18 21:00:00 NR 14.1048 132.747 main 808 745 __________P___ -1 14.1048 132.747 0 16 295
1983287N09164 1983 73 WP MM LEX 1983-10-19 00:00:00 NR 14.4000 132.000 main 745 682 __________O___ -1 14.4000 132.000 0 15 290
1983287N09164 1983 73 WP MM LEX 1983-10-19 03:00:00 NR 14.6250 131.252 main 682 633 __________P___ -1 14.6250 131.252 0 12 281
1983287N09164 1983 73 WP MM LEX 1983-10-19 06:00:00 TS 14.6217 130.794 main 633 580 __O_______P___ -1 14.0000 132.000 1 23 1004 14.7772 130.492 0 11 272
1983287N09164 1983 73 WP MM LEX 1983-10-19 09:00:00 TS 14.6582 130.154 main 580 524 __P_______P___ -1 14.2433 130.990 1 23 1004 14.8657 129.736 0 12 272
1983287N09164 1983 73 WP MM LEX 1983-10-19 12:00:00 TS 14.6625 129.538 1004 tokyo main 515 462 _OO_______O___ -1 14.2000 130.300 2 1004 0 0 0 14.5000 130.000 1 23 1004 14.9000 129.000 0 13 275
1983287N09164 1983 73 WP MM LEX 1983-10-19 15:00:00 TS 14.7692 128.812 main 460 412 _PP_______P___ -1 14.5361 129.311 2 1004 0 0 14.7723 129.055 1 23 1004 14.8828 128.319 0 15 279
1983287N09164 1983 73 WP MM LEX 1983-10-19 18:00:00 TS 14.8803 128.057 1004 tokyo main 412 342 _OO_______P___ -1 14.8000 128.400 2 1004 0 0 0 15.0000 128.200 1 23 1004 14.8208 127.656 0 14 277
1983287N09164 1983 73 WP MM LEX 1983-10-19 21:00:00 TS 14.9424 127.362 main 342 276 _PP_______P___ -1 14.9569 127.619 2 1004 0 0 15.1219 127.477 1 23 1004 14.7484 126.991 0 13 275
1983287N09164 1983 73 WP MM LEX 1983-10-20 00:00:00 TS 15.0000 126.692 1004 tokyo main 276 218 _OOO______O___ -1 15.1000 126.900 2 1004 0 0 0 15.2000 126.800 1 23 1004 15.0000 127.000 TD 25 1004 14.7000 126.300 0 14 277
1983287N09164 1983 73 WP MM LEX 1983-10-20 03:00:00 TS 15.1012 125.945 main 210 165 _PPP______P___ -1 15.3421 126.165 2 1004 0 0 15.2921 126.080 1 23 1004 14.9980 126.017 TD 25 1003 14.7209 125.554 0 15 278
1983287N09164 1983 73 WP MM LEX 1983-10-20 06:00:00 TS 15.2052 125.128 1004 tokyo main 159 141 _OOO______P___ -1 15.6000 125.400 2 1004 0 0 0 15.4000 125.300 1 23 1004 15.0000 125.000 TD 25 1003 14.7695 124.780 0 17 277
1983287N09164 1983 73 WP MM LEX 1983-10-20 09:00:00 TS 15.3067 124.211 main 145 144 _PPP______P___ -1 15.8227 124.528 2 1004 0 0 15.5504 124.378 1 23 1004 15.0202 123.947 TD 25 1002 14.8333 123.991 0 17 277
1983287N09164 1983 73 WP MM LEX 1983-10-20 12:00:00 TS 15.4250 123.350 1004 tokyo main 144 92 _OOO______O___ -1 16.0000 123.700 2 1004 0 0 0 15.7000 123.500 1 23 1004 15.1000 123.000 TD 25 1002 14.9000 123.200 0 15 279
1983287N09164 1983 73 WP MM LEX 1983-10-20 15:00:00 TS 15.5313 122.652 main 92 44 _PPP______P___ -1 16.1069 123.070 2 1004 0 0 15.8064 122.907 1 23 1004 15.2695 122.268 TD 27 1001 14.9423 122.364 0 13 280
1983287N09164 1983 73 WP MM LEX 1983-10-20 18:00:00 TS 15.6465 122.009 1004 tokyo main 44 0 _OOO______P___ -1 16.2000 122.500 2 1004 0 0 0 15.9000 122.300 1 23 1004 15.5000 121.700 TD 30 1000 14.9858 121.538 0 13 281
1983287N09164 1983 73 WP MM LEX 1983-10-20 21:00:00 TS 15.7729 121.299 main 0 0 _PPP______P___ -1 16.3423 121.865 2 1004 0 0 15.9859 121.335 1 26 1004 15.7271 121.227 TD 30 1000 15.0363 120.767 0 14 282
1983287N09164 1983 73 WP MM LEX 1983-10-21 00:00:00 TS 15.9250 120.625 1004 tokyo main 0 0 _OOO______O___ -1 16.5000 121.200 2 1004 0 0 0 16.1000 120.400 1 29 1004 16.0000 120.800 TD 30 1000 15.1000 120.100 0 12 287
1983287N09164 1983 73 WP MM LEX 1983-10-21 03:00:00 TS 16.1337 120.061 main 0 0 _PPP______P___ -1 16.6650 120.493 2 1004 0 0 16.3068 119.833 1 29 1003 16.3873 120.323 TD 30 1000 15.1759 119.596 0 11 291
1983287N09164 1983 73 WP MM LEX 1983-10-21 06:00:00 TS 16.3170 119.549 1004 tokyo main 32 32 _OOO______P___ -1 16.8000 119.800 2 1004 0 0 0 16.5000 119.400 1 29 1002 16.7000 119.800 TD 30 1000 15.2680 119.195 0 10 285
1983287N09164 1983 73 WP MM LEX 1983-10-21 09:00:00 TS 16.4028 119.029 main 86 86 _PPP______P___ -1 16.8647 119.177 2 1003 0 0 16.5874 118.892 1 29 1002 16.7826 119.200 TD 30 999 15.3763 118.846 0 10 276
1983287N09164 1983 73 WP MM LEX 1983-10-21 12:00:00 TS 16.4250 118.525 1002 tokyo main 135 135 _OOO______O___ -1 16.9000 118.600 2 1002 0 0 0 16.6000 118.400 1 29 1002 16.7000 118.600 TD 30 999 15.5000 118.500 0 9 271
1983287N09164 1983 73 WP MM LEX 1983-10-21 15:00:00 TS 16.4238 118.041 main 187 187 _PPP______P___ -1 16.9648 118.035 2 1001 0 0 16.5798 117.950 1 29 1001 16.5073 118.085 TD 30 998 15.6434 118.094 0 9 268
1983287N09164 1983 73 WP MM LEX 1983-10-21 18:00:00 TS 16.3999 117.570 1000 tokyo main 228 228 _OOO______P___ -1 17.0000 117.500 2 1000 0 0 0 16.5000 117.500 1 29 1000 16.3000 117.600 TD 30 998 15.7995 117.680 0 9 266
1983287N09164 1983 73 WP MM LEX 1983-10-21 21:00:00 TS 16.3633 117.082 main 281 281 _PPP______P___ -1 16.9574 116.977 2 998 0 0 16.3275 117.000 1 33 999 16.2124 117.100 TD 32 997 15.9558 117.251 0 9 266
1983287N09164 1983 73 WP MM LEX 1983-10-22 00:00:00 TS 16.3353 116.612 40 996 tokyo main 332 332 OOOO______O___ jtwc_wp WP171983 16.1000 116.800 30 -1 16.9000 116.500 3 40 996 0 9 200 200 0 16.2000 116.500 2 38 998 16.2000 116.600 TS 35 997 16.1000 116.800 1 30 9 269
1983287N09164 1983 73 WP MM LEX 1983-10-22 03:00:00 TS 16.3469 116.098 main 386 386 PPPP______P___ WP171983 16.0681 116.107 32 -1 16.8849 116.063 3 40 996 0 9 200 200 16.2550 116.013 2 38 996 16.2126 116.063 TS 35 997 16.1745 116.248 1 32 10 274
1983287N09164 1983 73 WP MM LEX 1983-10-22 06:00:00 TS 16.4034 115.624 40 996 tokyo main 440 440 OOOO______P___ jtwc_wp WP171983 16.1000 115.500 35 0 16.9000 115.700 3 40 996 0 9 200 200 0 16.4000 115.600 2 38 995 16.3000 115.600 TS 35 997 16.2411 115.687 1 35 8 281
1983287N09164 1983 73 WP MM LEX 1983-10-22 09:00:00 TS 16.5093 115.253 main 473 473 PPPP______P___ WP171983 16.2473 115.053 37 0 16.9349 115.420 3 40 996 0 9 200 200 16.5498 115.327 2 38 995 16.4774 115.283 TS 35 997 16.3370 115.183 1 37 7 295
1983287N09164 1983 73 WP MM LEX 1983-10-22 12:00:00 TS 16.6800 115.000 40 996 tokyo main 507 502 OOOO______O___ jtwc_wp WP171983 16.5000 114.800 40 0 17.0000 115.200 3 40 996 0 9 200 200 0 16.7000 115.100 2 38 995 16.7000 115.100 TS 35 997 16.5000 114.800 2 40 6 313
1983287N09164 1983 73 WP MM LEX 1983-10-22 15:00:00 TS 16.8888 114.832 main 502 480 PPPP______P___ WP171983 16.8274 114.762 42 0 17.0850 114.985 3 40 996 0 9 200 200 16.7851 114.770 2 38 995 16.8999 115.020 TS 37 996 16.8464 114.624 2 42 5 331
1983287N09164 1983 73 WP MM LEX 1983-10-22 18:00:00 TS 17.1303 114.734 40 996 tokyo main 480 461 OOOO______P___ jtwc_wp WP171983 17.2000 114.800 45 0 17.2000 114.800 3 40 996 0 9 200 200 0 16.9000 114.500 2 38 995 17.1000 115.000 TS 40 995 17.2516 114.572 2 45 6 343
1983287N09164 1983 73 WP MM LEX 1983-10-22 21:00:00 TS 17.4142 114.665 main 461 440 PPPP______P___ WP171983 17.6325 114.738 47 0 17.3650 114.635 3 40 996 0 9 200 200 17.1424 114.412 2 38 995 17.3000 114.957 TS 42 993 17.6311 114.584 2 47 5 346
1983287N09164 1983 73 WP MM LEX 1983-10-23 00:00:00 TS 17.6400 114.600 40 996 tokyo main 440 425 OOOO______O___ jtwc_wp WP171983 17.9000 114.600 50 0 17.5000 114.500 3 40 996 0 9 200 200 0 17.4000 114.400 2 38 995 17.5000 114.900 TS 45 992 17.9000 114.600 2 50 3 329
1983287N09164 1983 73 WP MM LEX 1983-10-23 03:00:00 TS 17.6973 114.489 main 425 416 PPPP______P___ WP171983 17.7451 114.320 52 0 17.5225 114.392 3 40 994 0 9 200 200 17.5650 114.365 2 38 995 17.7150 114.823 TS 45 992 17.9390 114.544 2 51 2 284
1983287N09164 1983 73 WP MM LEX 1983-10-23 06:00:00 TS 17.6925 114.376 40 992 tokyo main 416 407 OOOO______P___ jtwc_wp WP171983 17.5000 114.100 55 0 17.5000 114.300 3 40 992 0 9 200 200 0 17.7000 114.300 2 38 995 17.9000 114.700 TS 45 992 17.8624 114.480 2 52 2 283
1983287N09164 1983 73 WP MM LEX 1983-10-23 09:00:00 TS 17.7409 114.293 main 407 392 PPPP______P___ WP171983 17.5275 114.193 55 0 17.5000 114.200 3 40 992 0 9 200 200 17.9025 114.158 2 43 993 18.0450 114.515 TS 45 992 17.7296 114.400 2 53 2 292
1983287N09164 1983 73 WP MM LEX 1983-10-23 12:00:00 TS 17.7600 114.200 40 992 tokyo main 392 389 OOOO______O___ jtwc_wp WP171983 17.6000 114.300 55 0 17.5000 114.100 3 40 992 0 9 200 200 0 18.0000 114.000 3 48 992 18.1000 114.300 TS 45 992 17.6000 114.300 2 55 2 260
1983287N09164 1983 73 WP MM LEX 1983-10-23 15:00:00 TS 17.7025 114.057 main 389 378 PPPP______P___ WP171983 17.5576 114.130 55 0 17.5000 114.008 3 40 992 0 9 200 200 17.8450 113.892 3 48 992 18.0450 114.085 TS 47 991 17.5647 114.172 2 55 3 242
1983287N09164 1983 73 WP MM LEX 1983-10-23 18:00:00 TS 17.6085 113.905 40 992 tokyo main 378 370 OOOO______P___ jtwc_wp WP171983 17.5000 113.900 55 0 17.5000 113.900 3 40 992 0 9 200 200 0 17.6000 113.800 3 48 992 17.9000 113.900 STS 50 990 17.5425 114.023 2 55 3 237
1983287N09164 1983 73 WP MM LEX 1983-10-23 21:00:00 TS 17.5333 113.785 main 377 367 PPPP______P___ WP171983 17.5000 113.793 55 0 17.5075 113.765 3 40 992 0 9 225 200 17.4275 113.715 3 48 992 17.7075 113.793 STS 50 990 17.5241 113.862 2 55 3 238
1983287N09164 1983 73 WP MM LEX 1983-10-24 00:00:00 TS 17.4600 113.660 40 992 tokyo main 367 353 OOOO______O___ jtwc_wp WP171983 17.5000 113.700 55 0 17.5000 113.600 3 40 992 0 1 250 200 0 17.3000 113.600 3 48 992 17.5000 113.700 STS 50 990 17.5000 113.700 2 55 3 241
1983287N09164 1983 73 WP MM LEX 1983-10-24 03:00:00 TS 17.3853 113.510 main 353 340 PPPP______P___ WP171983 17.4575 113.557 57 0 17.4500 113.415 3 42 991 0 1 300 225 17.2350 113.415 3 48 991 17.3275 113.557 STS 50 990 17.4565 113.605 2 56 3 245
1983287N09164 1983 73 WP MM LEX 1983-10-24 06:00:00 TS 17.3213 113.340 45 990 tokyo main 340 331 OOOO______P___ jtwc_wp WP171983 17.4000 113.400 60 0 17.4000 113.200 3 45 990 0 1 350 250 0 17.2000 113.200 3 48 990 17.2000 113.400 STS 50 990 17.4063 113.502 2 57 3 249
1983287N09164 1983 73 WP MM LEX 1983-10-24 09:00:00 TS 17.2685 113.184 main 331 319 PPPP______P___ WP171983 17.3499 113.288 60 0 17.4000 112.965 3 47 987 0 1 350 250 17.1124 113.030 3 48 990 17.1274 113.288 STS 52 987 17.3530 113.348 2 58 4 257
1983287N09164 1983 73 WP MM LEX 1983-10-24 12:00:00 TS 17.2400 112.960 50 985 tokyo main 319 278 OOOO______O___ jtwc_wp WP171983 17.3000 113.100 60 0 17.4000 112.700 4 50 985 0 2 350 250 0 17.1000 112.800 3 48 990 17.1000 113.100 STS 55 985 17.3000 113.100 2 60 6 268
1983287N09164 1983 73 WP MM LEX 1983-10-24 15:00:00 TS 17.2531 112.606 main 278 245 PPPP______P___ WP171983 17.2501 112.737 62 0 17.3574 112.415 4 50 985 0 2 325 275 17.3227 112.416 3 53 987 17.0851 112.737 STS 55 985 17.2501 112.724 2 62 7 272
1983287N09164 1983 73 WP MM LEX 1983-10-24 18:00:00 TS 17.2600 112.200 50 985 tokyo main 245 230 OOOO______O___ jtwc_wp WP171983 17.2000 112.300 65 1 17.3000 112.100 4 50 985 0 9 300 300 0 17.5000 112.000 3 58 985 17.1000 112.300 STS 55 985 17.2000 112.300 3 65 7 265
1983287N09164 1983 73 WP MM LEX 1983-10-24 21:00:00 TS 17.1924 111.837 main 223 210 PPPP______P___ WP171983 17.1273 111.915 67 1 17.2424 111.765 4 50 985 0 9 225 225 17.3148 111.707 3 58 982 17.1424 111.900 STS 57 982 17.1352 111.900 3 67 7 260
1983287N09164 1983 73 WP MM LEX 1983-10-25 00:00:00 TS 17.1400 111.460 50 985 tokyo main 213 177 OOOO______O___ jtwc_wp WP171983 17.1000 111.500 70 1 17.2000 111.400 4 50 985 0 9 150 150 0 17.1000 111.400 3 58 980 17.2000 111.500 STS 60 980 17.1000 111.500 4 70 8 269
1983287N09164 1983 73 WP MM LEX 1983-10-25 03:00:00 TS 17.1845 111.040 main 171 138 PPPP______P___ WP171983 17.1777 110.985 67 1 17.1849 111.015 4 50 985 0 9 150 150 17.1625 110.973 3 58 982 17.2499 111.107 STS 60 980 17.1475 111.121 4 68 8 279
1983287N09164 1983 73 WP MM LEX 1983-10-25 06:00:00 TS 17.2703 110.608 50 985 tokyo main 138 113 OOOO______P___ jtwc_wp WP171983 17.3000 110.500 65 1 17.2000 110.600 4 50 985 0 9 150 150 0 17.3000 110.500 3 58 985 17.3000 110.700 STS 60 980 17.2515 110.741 4 67 8 281
1983287N09164 1983 73 WP MM LEX 1983-10-25 09:00:00 TS 17.3458 110.201 main 113 90 PPPP______P___ WP171983 17.3996 110.200 65 1 17.2424 110.158 4 50 985 0 9 150 150 17.3574 110.050 3 58 985 17.3499 110.257 STS 60 980 17.3797 110.341 4 66 8 281
1983287N09164 1983 73 WP MM LEX 1983-10-25 12:00:00 TS 17.4200 109.780 50 985 tokyo main 90 78 OOOO______O___ jtwc_wp WP171983 17.5000 109.900 65 1 17.3000 109.700 4 50 985 0 9 150 150 0 17.4000 109.600 3 58 985 17.4000 109.800 STS 60 980 17.5000 109.900 4 65 9 280
1983287N09164 1983 73 WP MM LEX 1983-10-25 15:00:00 TS 17.4873 109.320 main 81 81 PPPP______P___ WP171983 17.6149 109.445 62 0 17.3498 109.257 4 50 985 0 9 150 150 17.4424 109.142 3 58 985 17.4424 109.350 STS 60 980 17.5868 109.404 4 62 9 278
1983287N09164 1983 73 WP MM LEX 1983-10-25 18:00:00 TS 17.5436 108.831 50 985 tokyo main 102 91 OOOO______P___ jtwc_wp WP171983 17.7000 108.900 60 0 17.4000 108.800 4 50 985 0 9 150 150 0 17.5000 108.700 3 58 985 17.5000 108.900 STS 60 980 17.6427 108.861 4 60 9 277
1983287N09164 1983 73 WP MM LEX 1983-10-25 21:00:00 TS 17.5939 108.352 main 105 101 PPPP______P___ WP171983 17.7074 108.322 57 0 17.4424 108.315 4 50 985 0 9 137 137 17.5921 108.330 3 58 985 17.5922 108.472 STS 57 982 17.6772 108.288 4 57 9 276
1983287N09164 1983 73 WP MM LEX 1983-10-26 00:00:00 TS 17.6500 107.850 50 985 tokyo main 108 69 OOOO______O___ jtwc_wp WP171983 17.7000 107.700 55 0 17.5000 107.800 4 50 985 0 9 125 125 0 17.7000 107.900 3 58 985 17.7000 108.000 STS 55 985 17.7000 107.700 2 55 10 278
1983287N09164 1983 73 WP MM LEX 1983-10-26 03:00:00 TS 17.7336 107.293 main 69 23 PPPP__________ WP171983 17.7354 107.055 50 0 17.5848 107.265 4 47 987 0 9 112 112 17.8074 107.303 3 48 988 17.8074 107.430 STS 50 988 2 11 279
1983287N09164 1983 73 WP MM LEX 1983-10-26 06:00:00 TS 17.8182 106.673 45 990 tokyo main 23 0 OOOO__________ jtwc_wp WP171983 17.8000 106.400 45 0 17.7000 106.700 3 45 990 0 9 100 100 0 17.9000 106.600 2 38 992 17.9000 106.800 TS 45 992 2 12 278
1983287N09164 1983 73 WP MM LEX 1983-10-26 09:00:00 TS 17.8976 106.060 main 0 0 _PPP__________ WP171983 -1 17.8348 106.115 3 40 993 0 9 100 100 17.9605 105.858 2 33 993 17.9604 106.153 TS 40 994 2 12 279
1983287N09164 1983 73 WP MM LEX 1983-10-26 12:00:00 TS 18.0000 105.433 35 996 tokyo main 0 0 _OOO__________ -1 18.0000 105.500 3 35 996 0 9 100 100 0 18.0000 105.100 1 29 995 18.0000 105.500 TS 35 997 12 284
1983287N09164 1983 73 WP MM LEX 1983-10-26 15:00:00 TS 18.1774 104.850 main 0 0 _P____________ -1 18.1774 104.850 3 1000 0 9 1 TS 12 289
1983287N09164 1983 73 WP MM LEX 1983-10-26 18:00:00 TS 18.4000 104.200 1004 tokyo main 0 0 _O____________ -1 18.4000 104.200 2 1004 0 0 0 13 293
1983287N09164 1983 73 WP MM LEX 1983-10-26 21:00:00 TS 18.6828 103.588 main 0 0 _P____________ -1 18.6828 103.588 2 1008 0 0 13 298
1983287N09164 1983 73 WP MM LEX 1983-10-27 00:00:00 TS 19.0000 103.000 1012 tokyo main 0 _O____________ -1 19.0000 103.000 2 1012 0 0 0 13 300

Digital Typhoon Data and Search

About IBTrACS Database

This database is a web-friendly format of International Best Track Archive for Climate Stewardship (IBTrACS), a global best track data archive curated by NOAA dating back to 1842.

Updated: 2021-12-03